You are not logged in, Click here to log in
臺灣桃園國際機場TPE / RCTP 桃園市大園區航站南路9號
ICAO: RCTP Country: 桃園市大園區航站南路9號
Latitude: 25.0797 Longitude: 121.234
Total Arrivals: 1589 Total Departures: 1625
Latest Arrival: IT211 (RJBB-RCTP)CHU. CHUHAO Latest Departure: CI112 (RCTP-RJOA)ALAN. LIU
Scenery: http://www.taoyuan-airport.com/UserFiles/Image/e2map2.gif
METAR : RCTP 220900Z 05024KT 9999 FEW012 BKN016 BKN025 18/15 Q1026 NOSIG RMK A3031

臺灣桃園國際機場TPE